sensor_id;sensor_type;location;lat;lon;timestamp;temperature;humidity
20998;DHT22;10657;51.276;6.390;2022-11-20T00:00:41;3.70;99.90
20998;DHT22;10657;51.276;6.390;2022-11-20T00:03:08;3.70;99.90
20998;DHT22;10657;51.276;6.390;2022-11-20T00:05:34;3.60;99.90
20998;DHT22;10657;51.276;6.390;2022-11-20T00:08:01;3.60;99.90
20998;DHT22;10657;51.276;6.390;2022-11-20T00:10:28;3.70;99.90
20998;DHT22;10657;51.276;6.390;2022-11-20T00:12:54;3.70;99.90
20998;DHT22;10657;51.276;6.390;2022-11-20T00:15:21;3.80;99.90
20998;DHT22;10657;51.276;6.390;2022-11-20T00:17:48;3.90;99.90
20998;DHT22;10657;51.276;6.390;2022-11-20T00:20:14;3.80;99.90
20998;DHT22;10657;51.276;6.390;2022-11-20T00:22:41;3.80;99.90
20998;DHT22;10657;51.276;6.390;2022-11-20T00:25:07;3.80;99.90
20998;DHT22;10657;51.276;6.390;2022-11-20T00:27:34;3.70;99.90
20998;DHT22;10657;51.276;6.390;2022-11-20T00:30:01;3.60;99.90
20998;DHT22;10657;51.276;6.390;2022-11-20T00:32:27;3.70;99.90
20998;DHT22;10657;51.276;6.390;2022-11-20T00:34:54;3.70;99.90
20998;DHT22;10657;51.276;6.390;2022-11-20T00:37:21;3.80;99.90
20998;DHT22;10657;51.276;6.390;2022-11-20T00:39:47;3.70;99.90
20998;DHT22;10657;51.276;6.390;2022-11-20T00:42:14;3.70;99.90
20998;DHT22;10657;51.276;6.390;2022-11-20T00:44:40;3.40;99.90
20998;DHT22;10657;51.276;6.390;2022-11-20T00:47:07;3.40;99.90
20998;DHT22;10657;51.276;6.390;2022-11-20T00:49:34;3.40;99.90
20998;DHT22;10657;51.276;6.390;2022-11-20T00:52:00;3.40;99.90
20998;DHT22;10657;51.276;6.390;2022-11-20T00:54:27;3.50;99.90
20998;DHT22;10657;51.276;6.390;2022-11-20T00:56:53;3.50;99.90
20998;DHT22;10657;51.276;6.390;2022-11-20T00:59:20;3.40;99.90
20998;DHT22;10657;51.276;6.390;2022-11-20T01:01:47;3.50;99.90
20998;DHT22;10657;51.276;6.390;2022-11-20T01:04:14;3.40;99.90
20998;DHT22;10657;51.276;6.390;2022-11-20T01:06:40;3.40;99.90
20998;DHT22;10657;51.276;6.390;2022-11-20T01:09:11;3.50;99.90
20998;DHT22;10657;51.276;6.390;2022-11-20T01:11:40;3.70;99.90
20998;DHT22;10657;51.276;6.390;2022-11-20T01:14:10;4.00;99.90
20998;DHT22;10657;51.276;6.390;2022-11-20T01:16:40;3.90;99.90
20998;DHT22;10657;51.276;6.390;2022-11-20T01:19:11;3.80;99.90
20998;DHT22;10657;51.276;6.390;2022-11-20T01:21:44;4.10;99.90
20998;DHT22;10657;51.276;6.390;2022-11-20T01:24:14;4.00;99.90
20998;DHT22;10657;51.276;6.390;2022-11-20T01:26:42;3.80;99.90
20998;DHT22;10657;51.276;6.390;2022-11-20T01:29:14;3.90;99.90
20998;DHT22;10657;51.276;6.390;2022-11-20T01:31:41;4.10;99.90
20998;DHT22;10657;51.276;6.390;2022-11-20T01:34:14;3.90;99.90
20998;DHT22;10657;51.276;6.390;2022-11-20T01:36:41;3.40;99.90
20998;DHT22;10657;51.276;6.390;2022-11-20T01:39:17;3.30;99.90
20998;DHT22;10657;51.276;6.390;2022-11-20T01:41:45;3.30;99.90
20998;DHT22;10657;51.276;6.390;2022-11-20T01:44:57;3.20;99.90
20998;DHT22;10657;51.276;6.390;2022-11-20T01:52:48;3.10;99.90
20998;DHT22;10657;51.276;6.390;2022-11-20T01:55:20;3.20;99.90
20998;DHT22;10657;51.276;6.390;2022-11-20T01:57:48;3.10;99.90
20998;DHT22;10657;51.276;6.390;2022-11-20T02:00:17;3.00;99.90
20998;DHT22;10657;51.276;6.390;2022-11-20T02:02:49;3.00;99.90
20998;DHT22;10657;51.276;6.390;2022-11-20T02:08:19;2.90;99.90
20998;DHT22;10657;51.276;6.390;2022-11-20T02:10:46;2.90;99.90
20998;DHT22;10657;51.276;6.390;2022-11-20T02:13:12;2.90;99.90
20998;DHT22;10657;51.276;6.390;2022-11-20T02:15:58;2.90;99.90
20998;DHT22;10657;51.276;6.390;2022-11-20T02:18:24;3.00;99.90
20998;DHT22;10657;51.276;6.390;2022-11-20T02:21:00;2.80;99.90
20998;DHT22;10657;51.276;6.390;2022-11-20T02:23:52;2.80;99.90
20998;DHT22;10657;51.276;6.390;2022-11-20T02:26:20;2.90;99.90
20998;DHT22;10657;51.276;6.390;2022-11-20T02:28:49;3.00;99.90
20998;DHT22;10657;51.276;6.390;2022-11-20T02:31:16;3.00;99.90
20998;DHT22;10657;51.276;6.390;2022-11-20T02:33:43;2.90;99.90
20998;DHT22;10657;51.276;6.390;2022-11-20T02:36:11;2.80;99.90
20998;DHT22;10657;51.276;6.390;2022-11-20T02:38:41;2.70;99.90
20998;DHT22;10657;51.276;6.390;2022-11-20T02:41:08;2.40;99.90
20998;DHT22;10657;51.276;6.390;2022-11-20T02:43:35;2.50;99.90
20998;DHT22;10657;51.276;6.390;2022-11-20T02:46:01;2.60;99.90
20998;DHT22;10657;51.276;6.390;2022-11-20T02:48:28;2.50;99.90
20998;DHT22;10657;51.276;6.390;2022-11-20T02:50:59;2.40;99.90
20998;DHT22;10657;51.276;6.390;2022-11-20T02:53:26;2.10;99.90
20998;DHT22;10657;51.276;6.390;2022-11-20T02:55:52;2.00;99.90
20998;DHT22;10657;51.276;6.390;2022-11-20T02:58:19;2.10;99.90
20998;DHT22;10657;51.276;6.390;2022-11-20T03:00:46;2.10;99.90
20998;DHT22;10657;51.276;6.390;2022-11-20T03:03:12;2.10;99.90
20998;DHT22;10657;51.276;6.390;2022-11-20T03:05:39;2.10;99.90
20998;DHT22;10657;51.276;6.390;2022-11-20T03:08:05;2.10;99.90
20998;DHT22;10657;51.276;6.390;2022-11-20T03:10:32;2.20;99.90
20998;DHT22;10657;51.276;6.390;2022-11-20T03:12:59;2.20;99.90
20998;DHT22;10657;51.276;6.390;2022-11-20T03:15:25;2.10;99.90
20998;DHT22;10657;51.276;6.390;2022-11-20T03:17:55;2.00;99.90
20998;DHT22;10657;51.276;6.390;2022-11-20T03:20:22;1.90;99.90
20998;DHT22;10657;51.276;6.390;2022-11-20T03:22:49;1.90;99.90
20998;DHT22;10657;51.276;6.390;2022-11-20T03:25:16;1.90;99.90
20998;DHT22;10657;51.276;6.390;2022-11-20T03:27:42;1.80;99.90
20998;DHT22;10657;51.276;6.390;2022-11-20T03:30:09;1.80;99.90
20998;DHT22;10657;51.276;6.390;2022-11-20T03:32:36;2.00;99.90
20998;DHT22;10657;51.276;6.390;2022-11-20T03:35:03;2.00;99.90
20998;DHT22;10657;51.276;6.390;2022-11-20T03:37:29;2.10;99.90
20998;DHT22;10657;51.276;6.390;2022-11-20T03:39:56;2.00;99.90
20998;DHT22;10657;51.276;6.390;2022-11-20T03:42:23;1.90;99.90
20998;DHT22;10657;51.276;6.390;2022-11-20T03:45:08;2.10;99.90
20998;DHT22;10657;51.276;6.390;2022-11-20T03:47:35;2.20;99.90
20998;DHT22;10657;51.276;6.390;2022-11-20T03:50:02;2.30;99.90
20998;DHT22;10657;51.276;6.390;2022-11-20T03:52:28;2.30;99.90
20998;DHT22;10657;51.276;6.390;2022-11-20T03:54:55;2.30;99.90
20998;DHT22;10657;51.276;6.390;2022-11-20T03:57:22;2.30;99.90
20998;DHT22;10657;51.276;6.390;2022-11-20T03:59:48;2.30;99.90
20998;DHT22;10657;51.276;6.390;2022-11-20T04:02:15;2.50;99.90
20998;DHT22;10657;51.276;6.390;2022-11-20T04:04:41;2.50;99.90
20998;DHT22;10657;51.276;6.390;2022-11-20T04:07:08;2.50;99.90
20998;DHT22;10657;51.276;6.390;2022-11-20T04:09:35;2.60;99.90
20998;DHT22;10657;51.276;6.390;2022-11-20T04:12:01;2.70;99.90
20998;DHT22;10657;51.276;6.390;2022-11-20T04:14:28;2.80;99.90
20998;DHT22;10657;51.276;6.390;2022-11-20T04:16:54;2.50;99.90
20998;DHT22;10657;51.276;6.390;2022-11-20T04:19:21;2.50;99.90
20998;DHT22;10657;51.276;6.390;2022-11-20T04:21:48;2.60;99.90
20998;DHT22;10657;51.276;6.390;2022-11-20T04:24:15;2.60;99.90
20998;DHT22;10657;51.276;6.390;2022-11-20T04:26:41;2.90;99.90
20998;DHT22;10657;51.276;6.390;2022-11-20T04:29:11;2.80;99.90
20998;DHT22;10657;51.276;6.390;2022-11-20T04:31:38;2.80;99.90
20998;DHT22;10657;51.276;6.390;2022-11-20T04:34:06;2.80;99.90
20998;DHT22;10657;51.276;6.390;2022-11-20T04:36:34;2.90;99.90
20998;DHT22;10657;51.276;6.390;2022-11-20T04:39:05;3.10;99.90
20998;DHT22;10657;51.276;6.390;2022-11-20T04:41:34;3.00;99.90
20998;DHT22;10657;51.276;6.390;2022-11-20T04:44:04;2.80;99.90
20998;DHT22;10657;51.276;6.390;2022-11-20T04:46:37;3.10;99.90
20998;DHT22;10657;51.276;6.390;2022-11-20T04:49:04;2.90;99.90
20998;DHT22;10657;51.276;6.390;2022-11-20T04:51:32;2.80;99.90
20998;DHT22;10657;51.276;6.390;2022-11-20T04:53:59;2.60;99.90
20998;DHT22;10657;51.276;6.390;2022-11-20T04:56:26;2.60;99.90
20998;DHT22;10657;51.276;6.390;2022-11-20T04:58:53;2.40;99.90
20998;DHT22;10657;51.276;6.390;2022-11-20T05:01:21;2.20;99.90
20998;DHT22;10657;51.276;6.390;2022-11-20T05:03:49;2.30;99.90
20998;DHT22;10657;51.276;6.390;2022-11-20T05:06:19;2.40;99.90
20998;DHT22;10657;51.276;6.390;2022-11-20T05:08:46;2.30;99.90
20998;DHT22;10657;51.276;6.390;2022-11-20T05:11:15;2.20;99.90
20998;DHT22;10657;51.276;6.390;2022-11-20T05:13:42;2.30;99.90
20998;DHT22;10657;51.276;6.390;2022-11-20T05:16:17;2.40;99.90
20998;DHT22;10657;51.276;6.390;2022-11-20T05:18:44;2.40;99.90
20998;DHT22;10657;51.276;6.390;2022-11-20T05:21:12;2.50;99.90
20998;DHT22;10657;51.276;6.390;2022-11-20T05:23:40;2.50;99.90
20998;DHT22;10657;51.276;6.390;2022-11-20T05:26:08;2.60;99.90
20998;DHT22;10657;51.276;6.390;2022-11-20T05:28:38;2.80;99.90
20998;DHT22;10657;51.276;6.390;2022-11-20T05:31:12;2.70;99.90
20998;DHT22;10657;51.276;6.390;2022-11-20T05:33:40;2.70;99.90
20998;DHT22;10657;51.276;6.390;2022-11-20T05:36:08;2.90;99.90
20998;DHT22;10657;51.276;6.390;2022-11-20T05:38:35;3.00;99.90
20998;DHT22;10657;51.276;6.390;2022-11-20T05:41:06;2.90;99.90
20998;DHT22;10657;51.276;6.390;2022-11-20T05:43:38;2.80;99.90
20998;DHT22;10657;51.276;6.390;2022-11-20T05:46:07;2.80;99.90
20998;DHT22;10657;51.276;6.390;2022-11-20T05:48:34;2.80;99.90
20998;DHT22;10657;51.276;6.390;2022-11-20T05:51:02;2.90;99.90
20998;DHT22;10657;51.276;6.390;2022-11-20T05:53:29;2.90;99.90
20998;DHT22;10657;51.276;6.390;2022-11-20T05:56:08;3.00;99.90
20998;DHT22;10657;51.276;6.390;2022-11-20T05:58:36;2.90;99.90
20998;DHT22;10657;51.276;6.390;2022-11-20T06:03:41;3.00;99.90
20998;DHT22;10657;51.276;6.390;2022-11-20T06:06:09;2.90;99.90
20998;DHT22;10657;51.276;6.390;2022-11-20T06:08:36;2.90;99.90
20998;DHT22;10657;51.276;6.390;2022-11-20T06:11:07;3.10;99.90
20998;DHT22;10657;51.276;6.390;2022-11-20T06:13:35;2.80;99.90
20998;DHT22;10657;51.276;6.390;2022-11-20T06:16:07;2.90;99.90
20998;DHT22;10657;51.276;6.390;2022-11-20T06:18:34;2.80;99.90
20998;DHT22;10657;51.276;6.390;2022-11-20T06:21:09;2.80;99.90
20998;DHT22;10657;51.276;6.390;2022-11-20T06:23:37;2.80;99.90
20998;DHT22;10657;51.276;6.390;2022-11-20T06:26:08;2.70;99.90
20998;DHT22;10657;51.276;6.390;2022-11-20T06:28:35;2.70;99.90
20998;DHT22;10657;51.276;6.390;2022-11-20T06:31:02;2.70;99.90
20998;DHT22;10657;51.276;6.390;2022-11-20T06:33:29;2.80;99.90
20998;DHT22;10657;51.276;6.390;2022-11-20T06:35:57;2.70;99.90
20998;DHT22;10657;51.276;6.390;2022-11-20T06:38:29;2.80;99.90
20998;DHT22;10657;51.276;6.390;2022-11-20T06:40:56;2.70;99.90
20998;DHT22;10657;51.276;6.390;2022-11-20T06:43:23;2.60;99.90
20998;DHT22;10657;51.276;6.390;2022-11-20T06:45:53;2.60;99.90
20998;DHT22;10657;51.276;6.390;2022-11-20T06:48:20;2.70;99.90
20998;DHT22;10657;51.276;6.390;2022-11-20T06:50:47;2.80;99.90
20998;DHT22;10657;51.276;6.390;2022-11-20T06:53:13;2.70;99.90
20998;DHT22;10657;51.276;6.390;2022-11-20T06:55:44;2.80;99.90
20998;DHT22;10657;51.276;6.390;2022-11-20T06:58:13;2.80;99.90
20998;DHT22;10657;51.276;6.390;2022-11-20T07:00:40;2.70;99.90
20998;DHT22;10657;51.276;6.390;2022-11-20T07:03:08;2.70;99.90
20998;DHT22;10657;51.276;6.390;2022-11-20T07:05:36;2.70;99.90
20998;DHT22;10657;51.276;6.390;2022-11-20T07:08:03;2.60;99.90
20998;DHT22;10657;51.276;6.390;2022-11-20T07:10:31;2.80;99.90
20998;DHT22;10657;51.276;6.390;2022-11-20T07:12:58;2.70;99.90
20998;DHT22;10657;51.276;6.390;2022-11-20T07:15:25;2.70;99.90
20998;DHT22;10657;51.276;6.390;2022-11-20T07:17:52;2.80;99.90
20998;DHT22;10657;51.276;6.390;2022-11-20T07:20:19;2.60;99.90
20998;DHT22;10657;51.276;6.390;2022-11-20T07:22:46;2.60;99.90
20998;DHT22;10657;51.276;6.390;2022-11-20T07:25:12;2.60;99.90
20998;DHT22;10657;51.276;6.390;2022-11-20T07:27:39;2.80;99.90
20998;DHT22;10657;51.276;6.390;2022-11-20T07:30:06;2.70;99.90
20998;DHT22;10657;51.276;6.390;2022-11-20T07:32:33;2.70;99.90
20998;DHT22;10657;51.276;6.390;2022-11-20T07:34:59;2.80;99.90
20998;DHT22;10657;51.276;6.390;2022-11-20T07:37:26;2.70;99.90
20998;DHT22;10657;51.276;6.390;2022-11-20T07:39:53;2.80;99.90
20998;DHT22;10657;51.276;6.390;2022-11-20T07:42:19;2.80;99.90
20998;DHT22;10657;51.276;6.390;2022-11-20T07:44:46;2.90;99.90
20998;DHT22;10657;51.276;6.390;2022-11-20T07:47:12;3.20;99.90
20998;DHT22;10657;51.276;6.390;2022-11-20T07:49:39;3.20;99.90
20998;DHT22;10657;51.276;6.390;2022-11-20T07:52:05;3.10;99.90
20998;DHT22;10657;51.276;6.390;2022-11-20T07:54:32;3.10;99.90
20998;DHT22;10657;51.276;6.390;2022-11-20T07:56:58;3.20;99.90
20998;DHT22;10657;51.276;6.390;2022-11-20T07:59:25;3.10;99.90
20998;DHT22;10657;51.276;6.390;2022-11-20T08:01:52;3.10;99.90
20998;DHT22;10657;51.276;6.390;2022-11-20T08:04:18;3.00;99.90
20998;DHT22;10657;51.276;6.390;2022-11-20T08:06:45;3.00;99.90
20998;DHT22;10657;51.276;6.390;2022-11-20T08:09:11;3.00;99.90
20998;DHT22;10657;51.276;6.390;2022-11-20T08:11:38;3.10;99.90
20998;DHT22;10657;51.276;6.390;2022-11-20T08:14:23;3.20;99.90
20998;DHT22;10657;51.276;6.390;2022-11-20T08:16:50;3.30;99.90
20998;DHT22;10657;51.276;6.390;2022-11-20T08:19:17;3.30;99.90
20998;DHT22;10657;51.276;6.390;2022-11-20T08:21:45;3.40;99.90
20998;DHT22;10657;51.276;6.390;2022-11-20T08:24:11;3.40;99.90
20998;DHT22;10657;51.276;6.390;2022-11-20T08:26:39;3.40;99.90
20998;DHT22;10657;51.276;6.390;2022-11-20T08:29:06;3.30;99.90
20998;DHT22;10657;51.276;6.390;2022-11-20T08:31:33;3.30;99.90
20998;DHT22;10657;51.276;6.390;2022-11-20T08:34:00;3.20;99.90
20998;DHT22;10657;51.276;6.390;2022-11-20T08:36:34;3.40;99.90
20998;DHT22;10657;51.276;6.390;2022-11-20T08:39:01;3.50;99.90
20998;DHT22;10657;51.276;6.390;2022-11-20T08:41:29;3.50;99.90
20998;DHT22;10657;51.276;6.390;2022-11-20T08:44:02;3.60;99.90
20998;DHT22;10657;51.276;6.390;2022-11-20T08:46:40;3.60;99.90
20998;DHT22;10657;51.276;6.390;2022-11-20T08:49:13;3.50;99.90
20998;DHT22;10657;51.276;6.390;2022-11-20T08:51:41;3.60;99.90
20998;DHT22;10657;51.276;6.390;2022-11-20T08:54:08;3.60;99.90
20998;DHT22;10657;51.276;6.390;2022-11-20T08:56:35;3.90;99.90
20998;DHT22;10657;51.276;6.390;2022-11-20T08:59:02;3.90;99.90
20998;DHT22;10657;51.276;6.390;2022-11-20T09:01:48;4.00;99.90
20998;DHT22;10657;51.276;6.390;2022-11-20T09:04:15;4.20;99.90
20998;DHT22;10657;51.276;6.390;2022-11-20T09:06:41;4.10;99.90
20998;DHT22;10657;51.276;6.390;2022-11-20T09:09:08;4.10;99.90
20998;DHT22;10657;51.276;6.390;2022-11-20T09:11:35;4.30;99.90
20998;DHT22;10657;51.276;6.390;2022-11-20T09:14:02;4.20;99.90
20998;DHT22;10657;51.276;6.390;2022-11-20T09:16:30;4.30;99.90
20998;DHT22;10657;51.276;6.390;2022-11-20T09:18:57;4.30;99.90
20998;DHT22;10657;51.276;6.390;2022-11-20T09:21:43;4.20;99.90
20998;DHT22;10657;51.276;6.390;2022-11-20T09:24:10;4.10;99.90
20998;DHT22;10657;51.276;6.390;2022-11-20T09:26:37;4.20;99.90
20998;DHT22;10657;51.276;6.390;2022-11-20T09:29:03;4.20;99.90
20998;DHT22;10657;51.276;6.390;2022-11-20T09:31:30;4.30;99.90
20998;DHT22;10657;51.276;6.390;2022-11-20T09:33:57;4.40;99.90
20998;DHT22;10657;51.276;6.390;2022-11-20T09:36:24;4.50;99.90
20998;DHT22;10657;51.276;6.390;2022-11-20T09:38:50;4.40;99.90
20998;DHT22;10657;51.276;6.390;2022-11-20T09:41:45;4.20;99.90
20998;DHT22;10657;51.276;6.390;2022-11-20T09:47:19;4.10;99.90
20998;DHT22;10657;51.276;6.390;2022-11-20T09:50:03;4.10;99.90
20998;DHT22;10657;51.276;6.390;2022-11-20T09:52:45;4.20;99.90
20998;DHT22;10657;51.276;6.390;2022-11-20T09:55:13;4.30;99.90
20998;DHT22;10657;51.276;6.390;2022-11-20T09:57:44;4.30;99.90
20998;DHT22;10657;51.276;6.390;2022-11-20T10:00:14;4.00;99.90
20998;DHT22;10657;51.276;6.390;2022-11-20T10:03:00;4.20;99.90
20998;DHT22;10657;51.276;6.390;2022-11-20T10:05:40;4.30;99.90
20998;DHT22;10657;51.276;6.390;2022-11-20T10:08:16;4.20;99.90
20998;DHT22;10657;51.276;6.390;2022-11-20T10:30:14;4.70;99.90
20998;DHT22;10657;51.276;6.390;2022-11-20T10:38:36;4.90;99.90
20998;DHT22;10657;51.276;6.390;2022-11-20T10:41:05;4.90;99.90
20998;DHT22;10657;51.276;6.390;2022-11-20T10:44:09;5.00;99.90
20998;DHT22;10657;51.276;6.390;2022-11-20T10:46:43;5.20;99.90
20998;DHT22;10657;51.276;6.390;2022-11-20T10:49:18;5.20;99.90
20998;DHT22;10657;51.276;6.390;2022-11-20T10:54:44;5.10;99.90
20998;DHT22;10657;51.276;6.390;2022-11-20T11:00:06;5.30;99.90
20998;DHT22;10657;51.276;6.390;2022-11-20T11:05:23;5.30;99.90
20998;DHT22;10657;51.276;6.390;2022-11-20T11:07:54;5.30;99.90
20998;DHT22;10657;51.276;6.390;2022-11-20T11:10:37;5.30;99.90
20998;DHT22;10657;51.276;6.390;2022-11-20T11:13:18;5.30;99.90
20998;DHT22;10657;51.276;6.390;2022-11-20T11:15:45;5.50;99.90
20998;DHT22;10657;51.276;6.390;2022-11-20T11:18:32;5.70;99.90
20998;DHT22;10657;51.276;6.390;2022-11-20T11:21:01;5.70;99.90
20998;DHT22;10657;51.276;6.390;2022-11-20T11:23:41;5.60;99.90
20998;DHT22;10657;51.276;6.390;2022-11-20T11:26:20;5.70;99.90
20998;DHT22;10657;51.276;6.390;2022-11-20T11:28:55;5.60;99.90
20998;DHT22;10657;51.276;6.390;2022-11-20T11:34:11;5.60;99.90
20998;DHT22;10657;51.276;6.390;2022-11-20T11:36:39;5.70;99.90
20998;DHT22;10657;51.276;6.390;2022-11-20T11:39:11;5.90;99.90
20998;DHT22;10657;51.276;6.390;2022-11-20T11:41:40;5.90;99.90
20998;DHT22;10657;51.276;6.390;2022-11-20T11:44:33;6.00;99.90
20998;DHT22;10657;51.276;6.390;2022-11-20T12:00:26;5.90;99.90
20998;DHT22;10657;51.276;6.390;2022-11-20T12:02:55;5.90;99.90
20998;DHT22;10657;51.276;6.390;2022-11-20T12:05:29;6.00;99.90
20998;DHT22;10657;51.276;6.390;2022-11-20T12:12:55;6.00;99.90
20998;DHT22;10657;51.276;6.390;2022-11-20T12:15:30;6.10;99.90
20998;DHT22;10657;51.276;6.390;2022-11-20T12:17:57;5.90;99.90
20998;DHT22;10657;51.276;6.390;2022-11-20T12:20:28;5.80;99.90
20998;DHT22;10657;51.276;6.390;2022-11-20T12:25:35;6.10;99.90
20998;DHT22;10657;51.276;6.390;2022-11-20T12:28:45;6.00;99.90
20998;DHT22;10657;51.276;6.390;2022-11-20T12:37:02;6.00;99.90
20998;DHT22;10657;51.276;6.390;2022-11-20T12:39:35;6.00;99.90
20998;DHT22;10657;51.276;6.390;2022-11-20T12:45:30;6.10;99.90
20998;DHT22;10657;51.276;6.390;2022-11-20T12:48:38;6.10;99.90
20998;DHT22;10657;51.276;6.390;2022-11-20T12:54:00;6.10;99.90
20998;DHT22;10657;51.276;6.390;2022-11-20T13:08:22;6.40;99.90
20998;DHT22;10657;51.276;6.390;2022-11-20T13:10:57;6.50;99.90
20998;DHT22;10657;51.276;6.390;2022-11-20T13:16:37;6.30;99.90
20998;DHT22;10657;51.276;6.390;2022-11-20T13:19:11;6.40;99.90
20998;DHT22;10657;51.276;6.390;2022-11-20T13:21:43;6.50;99.90
20998;DHT22;10657;51.276;6.390;2022-11-20T13:24:26;6.40;99.90
20998;DHT22;10657;51.276;6.390;2022-11-20T13:29:43;6.40;99.90
20998;DHT22;10657;51.276;6.390;2022-11-20T13:34:54;6.30;99.90
20998;DHT22;10657;51.276;6.390;2022-11-20T13:37:32;6.40;99.90
20998;DHT22;10657;51.276;6.390;2022-11-20T13:40:12;6.40;99.90
20998;DHT22;10657;51.276;6.390;2022-11-20T13:42:51;6.40;99.90
20998;DHT22;10657;51.276;6.390;2022-11-20T13:45:31;6.40;99.90
20998;DHT22;10657;51.276;6.390;2022-11-20T13:48:03;6.50;99.90
20998;DHT22;10657;51.276;6.390;2022-11-20T14:01:10;6.50;99.90
20998;DHT22;10657;51.276;6.390;2022-11-20T14:03:41;6.60;99.90
20998;DHT22;10657;51.276;6.390;2022-11-20T14:06:28;6.50;99.90
20998;DHT22;10657;51.276;6.390;2022-11-20T14:08:57;6.60;99.90
20998;DHT22;10657;51.276;6.390;2022-11-20T14:11:26;6.70;99.90
20998;DHT22;10657;51.276;6.390;2022-11-20T14:14:01;6.70;99.90
20998;DHT22;10657;51.276;6.390;2022-11-20T14:16:36;6.60;99.90
20998;DHT22;10657;51.276;6.390;2022-11-20T14:21:49;6.50;99.90
20998;DHT22;10657;51.276;6.390;2022-11-20T14:24:21;6.50;99.90
20998;DHT22;10657;51.276;6.390;2022-11-20T14:26:50;6.60;99.90
20998;DHT22;10657;51.276;6.390;2022-11-20T14:29:23;6.60;99.90
20998;DHT22;10657;51.276;6.390;2022-11-20T14:31:54;6.60;99.90
20998;DHT22;10657;51.276;6.390;2022-11-20T14:34:24;6.70;99.90
20998;DHT22;10657;51.276;6.390;2022-11-20T14:37:00;6.70;99.90
20998;DHT22;10657;51.276;6.390;2022-11-20T14:39:35;6.70;99.90
20998;DHT22;10657;51.276;6.390;2022-11-20T14:42:11;6.70;99.90
20998;DHT22;10657;51.276;6.390;2022-11-20T14:44:42;6.60;99.90
20998;DHT22;10657;51.276;6.390;2022-11-20T14:47:12;6.60;99.90
20998;DHT22;10657;51.276;6.390;2022-11-20T14:49:39;6.40;99.90
20998;DHT22;10657;51.276;6.390;2022-11-20T14:52:22;6.50;99.90
20998;DHT22;10657;51.276;6.390;2022-11-20T14:54:51;6.50;99.90
20998;DHT22;10657;51.276;6.390;2022-11-20T14:57:25;6.50;99.90
20998;DHT22;10657;51.276;6.390;2022-11-20T15:00:07;6.40;99.90
20998;DHT22;10657;51.276;6.390;2022-11-20T15:02:42;6.30;99.90
20998;DHT22;10657;51.276;6.390;2022-11-20T15:05:09;6.40;99.90
20998;DHT22;10657;51.276;6.390;2022-11-20T15:07:38;6.30;99.90
20998;DHT22;10657;51.276;6.390;2022-11-20T15:12:41;6.50;99.90
20998;DHT22;10657;51.276;6.390;2022-11-20T15:15:12;6.60;99.90
20998;DHT22;10657;51.276;6.390;2022-11-20T15:17:41;6.60;99.90
20998;DHT22;10657;51.276;6.390;2022-11-20T15:20:16;6.40;99.90
20998;DHT22;10657;51.276;6.390;2022-11-20T15:22:42;6.30;99.90
20998;DHT22;10657;51.276;6.390;2022-11-20T15:25:17;6.30;99.90
20998;DHT22;10657;51.276;6.390;2022-11-20T15:27:44;6.20;99.90
20998;DHT22;10657;51.276;6.390;2022-11-20T15:30:19;6.30;99.90
20998;DHT22;10657;51.276;6.390;2022-11-20T15:32:47;6.30;99.90
20998;DHT22;10657;51.276;6.390;2022-11-20T15:35:14;6.10;99.90
20998;DHT22;10657;51.276;6.390;2022-11-20T15:37:42;6.10;99.90
20998;DHT22;10657;51.276;6.390;2022-11-20T15:40:09;6.20;99.90
20998;DHT22;10657;51.276;6.390;2022-11-20T15:42:36;6.10;99.90
20998;DHT22;10657;51.276;6.390;2022-11-20T15:45:03;6.10;99.90
20998;DHT22;10657;51.276;6.390;2022-11-20T15:47:32;6.40;99.90
20998;DHT22;10657;51.276;6.390;2022-11-20T15:49:59;6.50;99.90
20998;DHT22;10657;51.276;6.390;2022-11-20T15:52:26;6.60;99.90
20998;DHT22;10657;51.276;6.390;2022-11-20T15:55:04;6.50;99.90
20998;DHT22;10657;51.276;6.390;2022-11-20T15:57:35;6.50;99.90
20998;DHT22;10657;51.276;6.390;2022-11-20T16:00:02;6.50;99.90
20998;DHT22;10657;51.276;6.390;2022-11-20T16:02:29;6.50;99.90
20998;DHT22;10657;51.276;6.390;2022-11-20T16:04:55;6.50;99.90
20998;DHT22;10657;51.276;6.390;2022-11-20T16:07:22;6.40;99.90
20998;DHT22;10657;51.276;6.390;2022-11-20T16:09:49;6.50;99.90
20998;DHT22;10657;51.276;6.390;2022-11-20T16:12:15;6.60;99.90
20998;DHT22;10657;51.276;6.390;2022-11-20T16:15:02;6.80;99.90
20998;DHT22;10657;51.276;6.390;2022-11-20T16:17:47;6.70;99.90
20998;DHT22;10657;51.276;6.390;2022-11-20T16:20:14;6.50;99.90
20998;DHT22;10657;51.276;6.390;2022-11-20T16:22:40;6.40;99.90
20998;DHT22;10657;51.276;6.390;2022-11-20T16:25:07;6.40;99.90
20998;DHT22;10657;51.276;6.390;2022-11-20T16:27:33;6.40;99.90
20998;DHT22;10657;51.276;6.390;2022-11-20T16:30:00;6.60;99.90
20998;DHT22;10657;51.276;6.390;2022-11-20T16:32:27;6.50;99.90
20998;DHT22;10657;51.276;6.390;2022-11-20T16:34:53;6.30;99.90
20998;DHT22;10657;51.276;6.390;2022-11-20T16:37:20;6.30;99.90
20998;DHT22;10657;51.276;6.390;2022-11-20T16:39:46;6.40;99.90
20998;DHT22;10657;51.276;6.390;2022-11-20T16:42:13;6.30;99.90
20998;DHT22;10657;51.276;6.390;2022-11-20T16:44:39;6.30;99.90
20998;DHT22;10657;51.276;6.390;2022-11-20T16:47:06;6.40;99.90
20998;DHT22;10657;51.276;6.390;2022-11-20T16:49:33;6.50;99.90
20998;DHT22;10657;51.276;6.390;2022-11-20T16:51:59;6.70;99.90
20998;DHT22;10657;51.276;6.390;2022-11-20T16:54:26;6.60;99.90
20998;DHT22;10657;51.276;6.390;2022-11-20T16:56:53;6.60;99.90
20998;DHT22;10657;51.276;6.390;2022-11-20T16:59:19;6.50;99.90
20998;DHT22;10657;51.276;6.390;2022-11-20T17:01:46;6.50;99.90
20998;DHT22;10657;51.276;6.390;2022-11-20T17:04:13;6.50;99.90
20998;DHT22;10657;51.276;6.390;2022-11-20T17:06:42;6.40;99.90
20998;DHT22;10657;51.276;6.390;2022-11-20T17:09:13;6.40;99.90
20998;DHT22;10657;51.276;6.390;2022-11-20T17:11:39;6.30;99.90
20998;DHT22;10657;51.276;6.390;2022-11-20T17:14:06;6.40;99.90
20998;DHT22;10657;51.276;6.390;2022-11-20T17:16:34;6.40;99.90
20998;DHT22;10657;51.276;6.390;2022-11-20T17:19:01;6.50;99.90
20998;DHT22;10657;51.276;6.390;2022-11-20T17:21:30;6.50;99.90
20998;DHT22;10657;51.276;6.390;2022-11-20T17:24:01;6.40;99.90
20998;DHT22;10657;51.276;6.390;2022-11-20T17:26:28;6.50;99.90
20998;DHT22;10657;51.276;6.390;2022-11-20T17:29:00;6.40;99.90
20998;DHT22;10657;51.276;6.390;2022-11-20T17:31:28;6.50;99.90
20998;DHT22;10657;51.276;6.390;2022-11-20T17:33:56;6.50;99.90
20998;DHT22;10657;51.276;6.390;2022-11-20T17:36:25;6.50;99.90
20998;DHT22;10657;51.276;6.390;2022-11-20T17:38:53;6.60;99.90
20998;DHT22;10657;51.276;6.390;2022-11-20T17:41:22;6.60;99.90
20998;DHT22;10657;51.276;6.390;2022-11-20T17:43:51;6.60;99.90
20998;DHT22;10657;51.276;6.390;2022-11-20T17:46:21;6.60;99.90
20998;DHT22;10657;51.276;6.390;2022-11-20T17:48:49;6.60;99.90
20998;DHT22;10657;51.276;6.390;2022-11-20T17:51:18;6.70;99.90
20998;DHT22;10657;51.276;6.390;2022-11-20T17:53:50;6.70;99.90
20998;DHT22;10657;51.276;6.390;2022-11-20T17:56:18;6.70;99.90
20998;DHT22;10657;51.276;6.390;2022-11-20T17:59:05;6.80;99.90
20998;DHT22;10657;51.276;6.390;2022-11-20T18:01:31;6.90;99.90